Main page
METAR-TAF:

METAR-TAF

Airports :

Edmundo Carvajal Airport

Macas, Ecuador

latitude: 02-17-57-S, longitude: 078-07-15-W, elevation: 1052 m

Current weather observation

The report was made 10 hours and 15 minutes ago, at 23:00 UTC
Wind 7 kt from the North
Temperature 24°C
Humidity 78%
Pressure 1014 hPa
Visibility 10 km or more
Scattered clouds at a height of 2300 ft
Scattered clouds at a height of 11000 ft

METAR: SEMC 202300Z 36007KT 9999 SCT023 SCT110 24/20 Q1014 RMK A2996

Time: 04:15 (09:15 UTC)


TAF: missing

Weather observations and forecasts of more than 4000 airports (METAR and TAF reports).

The available stations are represented by yellow and red dots on the map.

Hover mouse over dot to see the name of the station.

Then click to see weather observations and forecasts.

To change the map : click on the green buttons with a black cross to zoom in, on the green button with a dash to zoom out, or on the green arrows for adjacent maps.


METAR-TAF: